sensor_id;sensor_type;location;lat;lon;timestamp;temperature;humidity
73149;SHT30;61346;48.930;2.266;2022-12-10T00:00:36;4.28;75.82
73149;SHT30;61346;48.930;2.266;2022-12-10T00:03:04;4.31;75.79
73149;SHT30;61346;48.930;2.266;2022-12-10T00:05:29;4.32;75.66
73149;SHT30;61346;48.930;2.266;2022-12-10T00:07:55;4.37;75.68
73149;SHT30;61346;48.930;2.266;2022-12-10T00:10:20;4.37;75.72
73149;SHT30;61346;48.930;2.266;2022-12-10T00:12:45;4.37;75.81
73149;SHT30;61346;48.930;2.266;2022-12-10T00:15:11;4.39;75.76
73149;SHT30;61346;48.930;2.266;2022-12-10T00:17:36;4.45;75.74
73149;SHT30;61346;48.930;2.266;2022-12-10T00:20:02;4.48;75.63
73149;SHT30;61346;48.930;2.266;2022-12-10T00:22:27;4.50;75.51
73149;SHT30;61346;48.930;2.266;2022-12-10T00:24:53;4.49;75.53
73149;SHT30;61346;48.930;2.266;2022-12-10T00:27:18;4.53;75.53
73149;SHT30;61346;48.930;2.266;2022-12-10T00:29:44;4.58;75.55
73149;SHT30;61346;48.930;2.266;2022-12-10T00:32:09;4.55;75.69
73149;SHT30;61346;48.930;2.266;2022-12-10T00:34:34;4.56;75.68
73149;SHT30;61346;48.930;2.266;2022-12-10T00:37:00;4.58;75.60
73149;SHT30;61346;48.930;2.266;2022-12-10T00:39:27;4.58;75.65
73149;SHT30;61346;48.930;2.266;2022-12-10T00:41:52;4.59;75.64
73149;SHT30;61346;48.930;2.266;2022-12-10T00:44:17;4.62;75.57
73149;SHT30;61346;48.930;2.266;2022-12-10T00:46:43;4.63;75.49
73149;SHT30;61346;48.930;2.266;2022-12-10T00:49:09;4.67;75.51
73149;SHT30;61346;48.930;2.266;2022-12-10T00:51:34;4.67;75.33
73149;SHT30;61346;48.930;2.266;2022-12-10T00:54:00;4.67;75.28
73149;SHT30;61346;48.930;2.266;2022-12-10T00:56:31;4.65;75.40
73149;SHT30;61346;48.930;2.266;2022-12-10T00:58:58;4.65;75.36
73149;SHT30;61346;48.930;2.266;2022-12-10T01:01:35;4.67;75.33
73149;SHT30;61346;48.930;2.266;2022-12-10T01:04:04;4.67;75.17
73149;SHT30;61346;48.930;2.266;2022-12-10T01:06:32;4.67;75.13
73149;SHT30;61346;48.930;2.266;2022-12-10T01:09:00;4.66;75.19
73149;SHT30;61346;48.930;2.266;2022-12-10T01:11:29;4.63;75.12
73149;SHT30;61346;48.930;2.266;2022-12-10T01:13:55;4.60;75.20
73149;SHT30;61346;48.930;2.266;2022-12-10T01:16:22;4.58;75.28
73149;SHT30;61346;48.930;2.266;2022-12-10T01:18:48;4.59;75.22
73149;SHT30;61346;48.930;2.266;2022-12-10T01:21:18;4.58;75.19
73149;SHT30;61346;48.930;2.266;2022-12-10T01:23:45;4.56;75.46
73149;SHT30;61346;48.930;2.266;2022-12-10T01:26:13;4.56;75.55
73149;SHT30;61346;48.930;2.266;2022-12-10T01:28:39;4.55;75.39
73149;SHT30;61346;48.930;2.266;2022-12-10T01:31:10;4.55;75.47
73149;SHT30;61346;48.930;2.266;2022-12-10T01:33:37;4.55;75.51
73149;SHT30;61346;48.930;2.266;2022-12-10T01:36:10;4.53;75.54
73149;SHT30;61346;48.930;2.266;2022-12-10T01:38:36;4.58;75.51
73149;SHT30;61346;48.930;2.266;2022-12-10T01:41:02;4.55;75.56
73149;SHT30;61346;48.930;2.266;2022-12-10T01:43:27;4.58;75.68
73149;SHT30;61346;48.930;2.266;2022-12-10T01:45:53;4.58;75.81
73149;SHT30;61346;48.930;2.266;2022-12-10T01:48:19;4.59;75.66
73149;SHT30;61346;48.930;2.266;2022-12-10T01:50:44;4.59;75.66
73149;SHT30;61346;48.930;2.266;2022-12-10T01:53:11;4.60;75.70
73149;SHT30;61346;48.930;2.266;2022-12-10T01:55:48;4.62;75.52
73149;SHT30;61346;48.930;2.266;2022-12-10T01:58:17;4.66;75.47
73149;SHT30;61346;48.930;2.266;2022-12-10T02:00:50;4.67;75.30
73149;SHT30;61346;48.930;2.266;2022-12-10T02:03:24;4.70;75.30
73149;SHT30;61346;48.930;2.266;2022-12-10T02:06:06;4.69;75.33
73149;SHT30;61346;48.930;2.266;2022-12-10T02:08:39;4.67;75.23
73149;SHT30;61346;48.930;2.266;2022-12-10T02:11:24;4.70;75.28
73149;SHT30;61346;48.930;2.266;2022-12-10T02:14:04;4.69;75.43
73149;SHT30;61346;48.930;2.266;2022-12-10T02:16:37;4.72;75.43
73149;SHT30;61346;48.930;2.266;2022-12-10T02:20:14;4.75;75.31
73149;SHT30;61346;48.930;2.266;2022-12-10T02:22:07;4.75;75.34
73149;SHT30;61346;48.930;2.266;2022-12-10T02:24:36;4.75;75.40
73149;SHT30;61346;48.930;2.266;2022-12-10T02:27:15;4.77;75.41
73149;SHT30;61346;48.930;2.266;2022-12-10T02:29:43;4.77;75.39
73149;SHT30;61346;48.930;2.266;2022-12-10T02:32:13;4.80;75.51
73149;SHT30;61346;48.930;2.266;2022-12-10T02:34:47;4.79;75.33
73149;SHT30;61346;48.930;2.266;2022-12-10T02:37:21;4.81;75.36
73149;SHT30;61346;48.930;2.266;2022-12-10T02:39:50;4.83;75.33
73149;SHT30;61346;48.930;2.266;2022-12-10T02:42:19;4.84;75.18
73149;SHT30;61346;48.930;2.266;2022-12-10T02:44:47;4.84;75.29
73149;SHT30;61346;48.930;2.266;2022-12-10T02:47:16;4.84;75.48
73149;SHT30;61346;48.930;2.266;2022-12-10T02:49:43;4.80;75.32
73149;SHT30;61346;48.930;2.266;2022-12-10T02:52:15;4.83;75.34
73149;SHT30;61346;48.930;2.266;2022-12-10T02:54:47;4.84;75.25
73149;SHT30;61346;48.930;2.266;2022-12-10T03:00:19;4.83;75.35
73149;SHT30;61346;48.930;2.266;2022-12-10T03:03:07;4.84;75.48
73149;SHT30;61346;48.930;2.266;2022-12-10T03:05:42;4.87;75.33
73149;SHT30;61346;48.930;2.266;2022-12-10T03:08:18;4.87;75.26
73149;SHT30;61346;48.930;2.266;2022-12-10T03:10:55;4.88;75.26
73149;SHT30;61346;48.930;2.266;2022-12-10T03:13:29;4.91;75.27
73149;SHT30;61346;48.930;2.266;2022-12-10T03:15:56;4.91;75.23
73149;SHT30;61346;48.930;2.266;2022-12-10T03:18:25;4.93;75.43
73149;SHT30;61346;48.930;2.266;2022-12-10T03:20:53;4.91;75.45
73149;SHT30;61346;48.930;2.266;2022-12-10T03:23:22;4.93;75.35
73149;SHT30;61346;48.930;2.266;2022-12-10T03:25:49;4.91;75.30
73149;SHT30;61346;48.930;2.266;2022-12-10T03:28:18;4.90;75.32
73149;SHT30;61346;48.930;2.266;2022-12-10T03:30:45;4.91;75.34
73149;SHT30;61346;48.930;2.266;2022-12-10T03:33:12;4.93;75.30
73149;SHT30;61346;48.930;2.266;2022-12-10T03:35:38;4.93;75.39
73149;SHT30;61346;48.930;2.266;2022-12-10T03:38:04;4.90;75.46
73149;SHT30;61346;48.930;2.266;2022-12-10T03:40:31;4.91;75.29
73149;SHT30;61346;48.930;2.266;2022-12-10T03:42:56;4.93;75.14
73149;SHT30;61346;48.930;2.266;2022-12-10T03:45:22;4.88;75.24
73149;SHT30;61346;48.930;2.266;2022-12-10T03:47:47;4.93;75.42
73149;SHT30;61346;48.930;2.266;2022-12-10T03:50:14;4.93;75.21
73149;SHT30;61346;48.930;2.266;2022-12-10T03:52:40;4.95;75.07
73149;SHT30;61346;48.930;2.266;2022-12-10T03:55:05;4.94;75.17
73149;SHT30;61346;48.930;2.266;2022-12-10T03:57:32;4.95;75.23
73149;SHT30;61346;48.930;2.266;2022-12-10T03:59:57;4.95;75.10
73149;SHT30;61346;48.930;2.266;2022-12-10T04:02:23;5.00;74.93
73149;SHT30;61346;48.930;2.266;2022-12-10T04:04:48;5.01;74.95
73149;SHT30;61346;48.930;2.266;2022-12-10T04:07:13;5.01;74.84
73149;SHT30;61346;48.930;2.266;2022-12-10T04:09:38;5.01;74.73
73149;SHT30;61346;48.930;2.266;2022-12-10T04:12:04;5.03;74.61
73149;SHT30;61346;48.930;2.266;2022-12-10T04:14:29;5.03;74.68
73149;SHT30;61346;48.930;2.266;2022-12-10T04:17:13;5.04;74.76
73149;SHT30;61346;48.930;2.266;2022-12-10T04:19:46;5.03;74.63
73149;SHT30;61346;48.930;2.266;2022-12-10T04:22:11;5.01;74.58
73149;SHT30;61346;48.930;2.266;2022-12-10T04:24:57;5.00;74.69
73149;SHT30;61346;48.930;2.266;2022-12-10T04:27:42;4.98;74.69
73149;SHT30;61346;48.930;2.266;2022-12-10T04:30:10;5.01;74.56
73149;SHT30;61346;48.930;2.266;2022-12-10T04:32:36;5.04;74.61
73149;SHT30;61346;48.930;2.266;2022-12-10T04:35:02;5.05;74.54
73149;SHT30;61346;48.930;2.266;2022-12-10T04:37:27;5.08;74.39
73149;SHT30;61346;48.930;2.266;2022-12-10T04:39:53;5.10;74.55
73149;SHT30;61346;48.930;2.266;2022-12-10T04:42:20;5.11;74.60
73149;SHT30;61346;48.930;2.266;2022-12-10T04:44:48;5.13;74.38
73149;SHT30;61346;48.930;2.266;2022-12-10T04:47:14;5.13;74.27
73149;SHT30;61346;48.930;2.266;2022-12-10T04:49:40;5.18;74.15
73149;SHT30;61346;48.930;2.266;2022-12-10T04:52:07;5.17;74.13
73149;SHT30;61346;48.930;2.266;2022-12-10T04:54:33;5.20;73.74
73149;SHT30;61346;48.930;2.266;2022-12-10T04:56:58;5.18;73.82
73149;SHT30;61346;48.930;2.266;2022-12-10T04:59:23;5.20;73.71
73149;SHT30;61346;48.930;2.266;2022-12-10T05:01:49;5.18;73.80
73149;SHT30;61346;48.930;2.266;2022-12-10T05:04:16;5.18;73.67
73149;SHT30;61346;48.930;2.266;2022-12-10T05:06:43;5.17;73.82
73149;SHT30;61346;48.930;2.266;2022-12-10T05:09:10;5.17;73.92
73149;SHT30;61346;48.930;2.266;2022-12-10T05:11:36;5.18;73.93
73149;SHT30;61346;48.930;2.266;2022-12-10T05:14:02;5.17;73.77
73149;SHT30;61346;48.930;2.266;2022-12-10T05:16:30;5.20;73.81
73149;SHT30;61346;48.930;2.266;2022-12-10T05:18:56;5.17;73.70
73149;SHT30;61346;48.930;2.266;2022-12-10T05:21:24;5.20;73.32
73149;SHT30;61346;48.930;2.266;2022-12-10T05:23:51;5.20;73.51
73149;SHT30;61346;48.930;2.266;2022-12-10T05:26:19;5.18;73.47
73149;SHT30;61346;48.930;2.266;2022-12-10T05:28:50;5.18;73.35
73149;SHT30;61346;48.930;2.266;2022-12-10T05:31:27;5.18;73.20
73149;SHT30;61346;48.930;2.266;2022-12-10T05:33:53;5.18;73.26
73149;SHT30;61346;48.930;2.266;2022-12-10T05:36:22;5.14;73.19
73149;SHT30;61346;48.930;2.266;2022-12-10T05:38:48;5.13;73.53
73149;SHT30;61346;48.930;2.266;2022-12-10T05:41:17;5.14;73.44
73149;SHT30;61346;48.930;2.266;2022-12-10T05:43:43;5.11;73.37
73149;SHT30;61346;48.930;2.266;2022-12-10T05:46:11;5.13;73.23
73149;SHT30;61346;48.930;2.266;2022-12-10T05:48:37;5.14;73.38
73149;SHT30;61346;48.930;2.266;2022-12-10T05:51:08;5.14;72.95
73149;SHT30;61346;48.930;2.266;2022-12-10T05:53:33;5.15;73.30
73149;SHT30;61346;48.930;2.266;2022-12-10T05:56:00;5.17;73.10
73149;SHT30;61346;48.930;2.266;2022-12-10T05:58:27;5.18;73.09
73149;SHT30;61346;48.930;2.266;2022-12-10T06:00:53;5.17;73.06
73149;SHT30;61346;48.930;2.266;2022-12-10T06:03:18;5.20;72.91
73149;SHT30;61346;48.930;2.266;2022-12-10T06:05:43;5.20;73.03
73149;SHT30;61346;48.930;2.266;2022-12-10T06:08:09;5.21;72.84
73149;SHT30;61346;48.930;2.266;2022-12-10T06:10:35;5.20;72.99
73149;SHT30;61346;48.930;2.266;2022-12-10T06:13:01;5.20;72.76
73149;SHT30;61346;48.930;2.266;2022-12-10T06:15:26;5.21;73.04
73149;SHT30;61346;48.930;2.266;2022-12-10T06:17:54;5.18;73.21
73149;SHT30;61346;48.930;2.266;2022-12-10T06:20:19;5.20;73.08
73149;SHT30;61346;48.930;2.266;2022-12-10T06:22:45;5.22;73.03
73149;SHT30;61346;48.930;2.266;2022-12-10T06:25:10;5.25;73.06
73149;SHT30;61346;48.930;2.266;2022-12-10T06:27:35;5.25;73.10
73149;SHT30;61346;48.930;2.266;2022-12-10T06:30:01;5.30;73.11
73149;SHT30;61346;48.930;2.266;2022-12-10T06:32:27;5.28;73.09
73149;SHT30;61346;48.930;2.266;2022-12-10T06:34:52;5.30;72.99
73149;SHT30;61346;48.930;2.266;2022-12-10T06:37:18;5.28;72.93
73149;SHT30;61346;48.930;2.266;2022-12-10T06:39:44;5.30;73.07
73149;SHT30;61346;48.930;2.266;2022-12-10T06:42:09;5.30;72.97
73149;SHT30;61346;48.930;2.266;2022-12-10T06:44:34;5.30;73.08
73149;SHT30;61346;48.930;2.266;2022-12-10T06:47:00;5.30;72.91
73149;SHT30;61346;48.930;2.266;2022-12-10T06:49:25;5.34;73.01
73149;SHT30;61346;48.930;2.266;2022-12-10T06:51:51;5.30;72.91
73149;SHT30;61346;48.930;2.266;2022-12-10T06:54:19;5.36;72.73
73149;SHT30;61346;48.930;2.266;2022-12-10T06:56:44;5.35;72.76
73149;SHT30;61346;48.930;2.266;2022-12-10T06:59:12;5.32;72.78
73149;SHT30;61346;48.930;2.266;2022-12-10T07:01:38;5.34;72.75
73149;SHT30;61346;48.930;2.266;2022-12-10T07:04:05;5.32;72.58
73149;SHT30;61346;48.930;2.266;2022-12-10T07:06:31;5.31;72.80
73149;SHT30;61346;48.930;2.266;2022-12-10T07:08:57;5.34;72.85
73149;SHT30;61346;48.930;2.266;2022-12-10T07:11:24;5.31;72.76
73149;SHT30;61346;48.930;2.266;2022-12-10T07:13:50;5.31;72.69
73149;SHT30;61346;48.930;2.266;2022-12-10T07:16:21;5.28;72.71
73149;SHT30;61346;48.930;2.266;2022-12-10T07:18:48;5.25;72.93
73149;SHT30;61346;48.930;2.266;2022-12-10T07:21:23;5.24;73.01
73149;SHT30;61346;48.930;2.266;2022-12-10T07:23:49;5.25;72.95
73149;SHT30;61346;48.930;2.266;2022-12-10T14:18:19;6.87;67.10
73149;SHT30;61346;48.930;2.266;2022-12-10T15:39:16;5.76;69.56
73149;SHT30;61346;48.930;2.266;2022-12-10T15:41:52;5.71;69.63
73149;SHT30;61346;48.930;2.266;2022-12-10T15:48:15;5.58;69.89
73149;SHT30;61346;48.930;2.266;2022-12-10T16:01:18;5.38;70.29
73149;SHT30;61346;48.930;2.266;2022-12-10T16:03:57;5.38;70.42
73149;SHT30;61346;48.930;2.266;2022-12-10T16:06:28;5.34;70.47
73149;SHT30;61346;48.930;2.266;2022-12-10T23:11:22;3.40;74.31
73149;SHT30;61346;48.930;2.266;2022-12-10T23:13:52;3.38;74.29
73149;SHT30;61346;48.930;2.266;2022-12-10T23:16:18;3.36;74.23
73149;SHT30;61346;48.930;2.266;2022-12-10T23:18:45;3.32;74.20
73149;SHT30;61346;48.930;2.266;2022-12-10T23:21:25;3.29;74.08
73149;SHT30;61346;48.930;2.266;2022-12-10T23:23:51;3.24;74.23
73149;SHT30;61346;48.930;2.266;2022-12-10T23:26:17;3.21;74.37
73149;SHT30;61346;48.930;2.266;2022-12-10T23:28:43;3.22;74.34
73149;SHT30;61346;48.930;2.266;2022-12-10T23:31:08;3.19;74.35
73149;SHT30;61346;48.930;2.266;2022-12-10T23:33:37;3.18;74.47
73149;SHT30;61346;48.930;2.266;2022-12-10T23:36:07;3.21;74.62
73149;SHT30;61346;48.930;2.266;2022-12-10T23:38:36;3.22;74.64
73149;SHT30;61346;48.930;2.266;2022-12-10T23:41:07;3.25;74.33
73149;SHT30;61346;48.930;2.266;2022-12-10T23:43:36;3.25;74.13
73149;SHT30;61346;48.930;2.266;2022-12-10T23:46:04;3.25;74.20
73149;SHT30;61346;48.930;2.266;2022-12-10T23:48:30;3.24;74.42
73149;SHT30;61346;48.930;2.266;2022-12-10T23:50:57;3.24;74.27
73149;SHT30;61346;48.930;2.266;2022-12-10T23:53:23;3.28;74.21
73149;SHT30;61346;48.930;2.266;2022-12-10T23:56:03;3.28;74.39
73149;SHT30;61346;48.930;2.266;2022-12-10T23:58:31;3.29;74.22
